weather.gov     
National Weather Service

Terminal Aerodrome Forecast
NWS Homepage
This page is being discontinued on March 12, 2014.
The same data is available at this site. Please update your bookmarks.
Thank you, and we apologize for the inconvenience.
Please send an email to SR-SRH.Webmaster@noaa.gov with any concerns.


Current Version
Previous Version:    01  02  03  04  05  06  07  08  09  10  11  12  13  14  15  16  17  18  19  20  21  22  23  24  25  26  27  28  29  30  
   31  32  33  34  35  36  37  38  39  40  41  42  
[Printable]
596
FTUS43 KGRB 021100
TAFRHI
TAF
KRHI 021127Z 0212/0312 12004KT 1/4SM FG OVC002
     FM021300 12004KT 2SM BR SCT004 OVC009
      TEMPO 0213/0215 1/4SM FG BKN003
     FM022200 13003KT 4SM -RA BR OVC009
     FM030100 VRB03KT 1SM -RA BR OVC009
     FM030400 28004KT 2SM -RA BR OVC004
     FM030900 29008KT 4SM BR VCSH BKN007=


U.S. Dept. of Commerce
NOAA National Weather Service
1325 East West Highway
Silver Spring, MD 20910
E-mail: w-nws.webmaster@noaa.gov
Page last modified: May 16, 2007
NATIONAL WEATHER SERVICE: for Safety, for Work, for Fun - FOR LIFE